createdAt,value
2023-03-24T00:02:15.820Z,26.30
2023-03-24T00:04:47.530Z,26.30
2023-03-24T00:07:18.878Z,23.20
2023-03-24T00:09:48.034Z,22.70
2023-03-24T00:12:18.172Z,24.70
2023-03-24T00:14:47.222Z,25.60
2023-03-24T00:17:17.377Z,23.40
2023-03-24T00:19:46.656Z,25.10
2023-03-24T00:22:15.846Z,27.00
2023-03-24T00:24:45.823Z,24.90
2023-03-24T00:27:17.024Z,27.20
2023-03-24T00:29:46.170Z,24.80
2023-03-24T00:32:15.357Z,25.60
2023-03-24T00:34:44.417Z,26.40
2023-03-24T00:37:13.595Z,26.80
2023-03-24T00:39:43.838Z,29.20
2023-03-24T00:42:13.278Z,25.40
2023-03-24T00:44:44.326Z,25.90
2023-03-24T00:47:13.361Z,25.60
2023-03-24T00:49:42.598Z,27.20
2023-03-24T00:52:13.127Z,27.10
2023-03-24T00:54:42.789Z,26.30
2023-03-24T00:57:14.147Z,22.70
2023-03-24T00:59:48.549Z,24.70
2023-03-24T01:02:21.695Z,23.00
2023-03-24T01:04:55.925Z,21.80
2023-03-24T01:07:26.736Z,24.20
2023-03-24T01:09:57.305Z,26.40
2023-03-24T01:12:27.715Z,25.90
2023-03-24T01:14:59.435Z,24.80
2023-03-24T01:17:29.526Z,23.40
2023-03-24T01:19:58.959Z,24.90
2023-03-24T01:22:30.734Z,24.80
2023-03-24T01:25:00.390Z,23.60
2023-03-24T01:27:29.529Z,24.60
2023-03-24T01:30:01.136Z,25.00
2023-03-24T01:32:30.646Z,23.90
2023-03-24T01:34:59.848Z,25.70
2023-03-24T01:37:29.271Z,25.40
2023-03-24T01:39:58.486Z,25.50
2023-03-24T01:42:28.461Z,25.10
2023-03-24T01:45:21.746Z,25.30
2023-03-24T01:47:51.130Z,23.40
2023-03-24T01:50:20.920Z,26.00
2023-03-24T01:52:50.040Z,25.70
2023-03-24T01:55:19.697Z,24.40
2023-03-24T01:57:51.859Z,26.40
2023-03-24T02:00:22.393Z,26.70
2023-03-24T02:02:57.981Z,23.50
2023-03-24T02:05:32.612Z,28.90
2023-03-24T02:08:09.501Z,25.70
2023-03-24T02:10:39.651Z,27.00
2023-03-24T02:13:09.800Z,26.70
2023-03-24T02:15:45.689Z,23.60
2023-03-24T02:18:25.120Z,23.80
2023-03-24T02:21:30.182Z,25.10
2023-03-24T02:24:34.033Z,23.90
2023-03-24T02:27:10.134Z,23.40
2023-03-24T02:30:11.044Z,23.20
2023-03-24T02:33:20.299Z,24.40
2023-03-24T02:36:22.986Z,25.60
2023-03-24T02:39:15.674Z,25.20
2023-03-24T02:41:53.707Z,24.30
2023-03-24T02:44:30.793Z,24.70
2023-03-24T02:47:08.650Z,24.90
2023-03-24T02:49:45.433Z,24.80
2023-03-24T02:52:21.315Z,26.30
2023-03-24T02:57:26.680Z,25.80
2023-03-24T03:00:01.921Z,25.10
2023-03-24T03:02:35.229Z,28.00
2023-03-24T03:05:09.099Z,25.70
2023-03-24T03:07:38.569Z,27.90
2023-03-24T03:10:13.974Z,23.30
2023-03-24T03:12:44.544Z,22.90
2023-03-24T03:15:17.759Z,24.10
2023-03-24T03:17:53.287Z,21.50
2023-03-24T03:20:24.500Z,23.20
2023-03-24T03:23:00.273Z,24.60
2023-03-24T03:25:35.323Z,22.80
2023-03-24T03:28:06.934Z,23.90
2023-03-24T03:30:40.061Z,22.90
2023-03-24T03:33:17.751Z,24.30
2023-03-24T03:35:52.859Z,23.00
2023-03-24T03:38:27.068Z,25.30
2023-03-24T03:40:58.759Z,25.30
2023-03-24T03:43:30.364Z,26.70
2023-03-24T03:46:01.208Z,25.50
2023-03-24T03:48:31.132Z,21.40
2023-03-24T03:51:13.177Z,23.60
2023-03-24T03:53:48.400Z,25.70
2023-03-24T03:56:20.732Z,20.80
2023-03-24T03:58:50.507Z,24.90
2023-03-24T04:01:22.708Z,22.30
2023-03-24T04:04:19.700Z,21.90
2023-03-24T04:07:00.039Z,23.40
2023-03-24T04:09:42.218Z,24.40
2023-03-24T04:12:26.986Z,22.30
2023-03-24T04:15:17.084Z,24.70
2023-03-24T04:18:06.570Z,24.50
2023-03-24T04:20:45.998Z,27.10
2023-03-24T04:23:28.039Z,23.00
2023-03-24T04:26:06.965Z,23.10
2023-03-24T04:28:47.417Z,24.70
2023-03-24T04:31:23.064Z,25.00
2023-03-24T04:33:57.793Z,27.30
2023-03-24T04:36:33.965Z,26.30
2023-03-24T04:39:04.557Z,26.10
2023-03-24T04:41:34.227Z,29.60
2023-03-24T04:44:04.511Z,24.80
2023-03-24T04:46:34.770Z,25.40
2023-03-24T04:49:04.444Z,26.80
2023-03-24T04:51:34.499Z,28.50
2023-03-24T04:54:03.693Z,27.60
2023-03-24T04:56:40.169Z,29.10
2023-03-24T04:59:09.409Z,25.10
2023-03-24T05:01:38.666Z,29.00
2023-03-24T05:04:08.857Z,26.20
2023-03-24T05:06:37.739Z,26.30
2023-03-24T05:09:06.630Z,24.60
2023-03-24T05:11:36.028Z,27.10
2023-03-24T05:14:04.930Z,26.00
2023-03-24T05:16:33.925Z,24.70
2023-03-24T05:19:03.615Z,23.10
2023-03-24T05:21:33.849Z,22.40
2023-03-24T05:24:03.244Z,24.80
2023-03-24T05:26:33.403Z,26.80
2023-03-24T05:29:02.769Z,28.50
2023-03-24T05:31:31.637Z,23.70
2023-03-24T05:34:00.717Z,25.60
2023-03-24T05:36:29.550Z,24.30
2023-03-24T05:38:58.579Z,24.50
2023-03-24T05:41:27.734Z,23.20
2023-03-24T05:43:56.786Z,25.40
2023-03-24T05:46:26.683Z,22.30
2023-03-24T05:48:55.819Z,23.10
2023-03-24T05:51:25.004Z,21.60
2023-03-24T05:53:54.100Z,23.70
2023-03-24T05:56:23.186Z,22.30
2023-03-24T05:58:52.187Z,25.50
2023-03-24T06:01:21.206Z,20.40
2023-03-24T06:03:50.137Z,23.40
2023-03-24T06:06:19.011Z,23.70
2023-03-24T06:08:48.891Z,21.10
2023-03-24T06:11:18.186Z,27.90
2023-03-24T06:13:47.435Z,21.40
2023-03-24T06:16:18.252Z,22.70
2023-03-24T06:18:51.829Z,21.30
2023-03-24T06:21:21.597Z,20.70
2023-03-24T06:23:50.550Z,23.50
2023-03-24T06:26:19.628Z,21.80
2023-03-24T06:28:51.298Z,21.20
2023-03-24T06:31:21.033Z,21.00
2023-03-24T06:33:51.062Z,24.20
2023-03-24T06:36:20.464Z,18.90
2023-03-24T06:38:51.003Z,20.70
2023-03-24T06:41:20.208Z,26.10
2023-03-24T06:43:49.097Z,20.50
2023-03-24T06:46:18.082Z,21.60
2023-03-24T06:48:48.556Z,20.90
2023-03-24T06:51:18.070Z,17.50
2023-03-24T06:53:47.126Z,19.00
2023-03-24T06:56:17.658Z,19.80
2023-03-24T06:58:47.462Z,20.90
2023-03-24T07:01:16.595Z,19.60
2023-03-24T07:03:45.821Z,19.00
2023-03-24T07:06:15.079Z,14.80
2023-03-24T07:08:45.410Z,17.30
2023-03-24T07:11:15.026Z,19.90
2023-03-24T07:13:43.994Z,19.20
2023-03-24T07:16:13.124Z,18.50
2023-03-24T07:18:42.119Z,20.10
2023-03-24T07:21:11.129Z,20.40
2023-03-24T07:23:40.135Z,17.80
2023-03-24T07:26:09.000Z,20.00
2023-03-24T07:28:38.062Z,17.90
2023-03-24T07:31:10.209Z,17.60
2023-03-24T07:33:39.597Z,18.70
2023-03-24T07:36:09.859Z,18.30
2023-03-24T07:38:38.820Z,17.20
2023-03-24T07:41:07.991Z,16.80
2023-03-24T07:43:37.070Z,19.00
2023-03-24T07:46:09.049Z,19.00
2023-03-24T07:48:38.338Z,16.50
2023-03-24T07:51:07.636Z,19.60
2023-03-24T07:53:37.112Z,19.40
2023-03-24T07:56:07.197Z,20.90
2023-03-24T07:58:36.065Z,18.20
2023-03-24T08:01:09.150Z,17.70
2023-03-24T08:03:38.417Z,21.00
2023-03-24T08:06:09.242Z,19.60
2023-03-24T08:08:38.394Z,19.30
2023-03-24T08:11:07.631Z,20.00
2023-03-24T08:13:36.628Z,17.80
2023-03-24T08:16:06.218Z,18.00
2023-03-24T08:18:38.238Z,19.90
2023-03-24T08:21:07.605Z,17.60
2023-03-24T08:23:36.583Z,19.40
2023-03-24T08:26:06.662Z,18.60
2023-03-24T08:28:35.726Z,17.50
2023-03-24T08:31:05.560Z,18.00
2023-03-24T08:33:35.482Z,19.00
2023-03-24T08:36:05.154Z,17.50
2023-03-24T08:38:38.170Z,17.50
2023-03-24T08:41:07.986Z,18.10
2023-03-24T08:43:37.713Z,18.80
2023-03-24T08:46:10.548Z,18.50
2023-03-24T08:48:41.337Z,16.40
2023-03-24T08:51:15.144Z,16.70
2023-03-24T08:53:44.414Z,16.00
2023-03-24T08:56:13.771Z,16.80
2023-03-24T08:58:42.815Z,18.50
2023-03-24T09:01:11.918Z,17.80
2023-03-24T09:03:40.965Z,18.90
2023-03-24T09:06:10.797Z,15.20
2023-03-24T09:08:40.814Z,17.00
2023-03-24T09:11:15.729Z,17.40
2023-03-24T09:13:45.450Z,15.30
2023-03-24T09:16:15.037Z,17.30
2023-03-24T09:18:44.956Z,15.90
2023-03-24T09:21:14.363Z,15.60
2023-03-24T09:23:43.678Z,16.50
2023-03-24T09:26:12.774Z,14.10
2023-03-24T09:28:41.792Z,15.70
2023-03-24T09:31:11.768Z,16.60
2023-03-24T09:33:41.071Z,17.40
2023-03-24T09:36:11.559Z,14.00
2023-03-24T09:38:41.080Z,13.90
2023-03-24T09:41:17.312Z,14.90
2023-03-24T09:43:50.580Z,16.80
2023-03-24T09:46:28.970Z,14.60
2023-03-24T09:48:58.516Z,14.20
2023-03-24T09:51:29.569Z,18.20
2023-03-24T09:54:09.370Z,14.30
2023-03-24T09:56:41.383Z,13.80
2023-03-24T09:59:16.433Z,13.70
2023-03-24T10:01:45.818Z,14.00
2023-03-24T10:04:18.742Z,13.90
2023-03-24T10:06:52.667Z,12.50
2023-03-24T10:09:28.015Z,12.20
2023-03-24T10:12:16.471Z,13.40
2023-03-24T10:15:05.594Z,13.00
2023-03-24T10:17:46.968Z,13.30
2023-03-24T10:20:28.868Z,10.90
2023-03-24T10:23:05.471Z,11.40
2023-03-24T10:25:47.666Z,10.80
2023-03-24T10:28:23.559Z,12.00
2023-03-24T10:30:56.180Z,10.70
2023-03-24T10:33:25.378Z,11.30
2023-03-24T10:36:01.494Z,8.90
2023-03-24T10:38:30.916Z,9.70
2023-03-24T10:41:00.961Z,10.40
2023-03-24T10:43:30.919Z,12.60
2023-03-24T10:46:02.171Z,9.60
2023-03-24T10:48:45.012Z,11.00
2023-03-24T10:51:17.438Z,10.10
2023-03-24T10:53:48.231Z,11.30
2023-03-24T10:56:19.422Z,10.50
2023-03-24T10:58:48.601Z,8.60
2023-03-24T11:01:26.736Z,10.50
2023-03-24T11:04:03.944Z,7.80
2023-03-24T11:06:33.789Z,8.70
2023-03-24T11:09:16.239Z,7.50
2023-03-24T11:11:46.066Z,9.10
2023-03-24T11:14:24.755Z,6.80
2023-03-24T11:17:02.996Z,9.60
2023-03-24T11:19:36.175Z,9.70
2023-03-24T11:22:06.776Z,8.20
2023-03-24T11:24:38.206Z,9.50
2023-03-24T11:27:14.551Z,5.80
2023-03-24T11:29:46.220Z,7.90
2023-03-24T11:32:20.404Z,6.20
2023-03-24T11:34:57.197Z,7.20
2023-03-24T11:37:32.737Z,8.80
2023-03-24T11:42:53.332Z,8.60
2023-03-24T11:45:27.289Z,8.30
2023-03-24T11:47:58.221Z,7.80
2023-03-24T11:50:30.172Z,8.70
2023-03-24T11:53:07.703Z,9.20
2023-03-24T11:55:43.229Z,6.30
2023-03-24T12:00:52.544Z,6.80
2023-03-24T12:03:51.984Z,8.30
2023-03-24T12:06:35.288Z,7.40
2023-03-24T12:09:20.056Z,5.80
2023-03-24T12:12:13.425Z,6.80
2023-03-24T12:14:53.012Z,5.50
2023-03-24T12:17:25.590Z,7.10
2023-03-24T12:20:11.801Z,7.90
2023-03-24T12:22:52.567Z,7.00
2023-03-24T12:25:51.256Z,7.00
2023-03-24T12:28:45.882Z,5.20
2023-03-24T12:31:39.396Z,6.90
2023-03-24T12:34:31.752Z,6.40
2023-03-24T12:37:07.885Z,6.60
2023-03-24T12:39:48.640Z,6.60
2023-03-24T12:42:19.464Z,5.70
2023-03-24T12:45:27.352Z,5.10
2023-03-24T12:48:12.871Z,4.90
2023-03-24T12:50:53.894Z,5.40
2023-03-24T12:53:41.134Z,5.40
2023-03-24T12:56:16.966Z,4.80
2023-03-24T12:58:49.659Z,5.20
2023-03-24T13:01:28.868Z,4.00
2023-03-24T13:04:05.290Z,6.40
2023-03-24T13:06:40.228Z,3.60
2023-03-24T13:09:19.563Z,5.80
2023-03-24T13:11:57.467Z,5.70
2023-03-24T13:14:31.960Z,3.90
2023-03-24T13:17:06.077Z,4.50
2023-03-24T13:19:37.683Z,4.80
2023-03-24T13:22:12.504Z,4.10
2023-03-24T13:24:42.256Z,5.10
2023-03-24T13:27:16.647Z,5.30
2023-03-24T13:30:15.703Z,3.60
2023-03-24T13:32:48.139Z,4.40
2023-03-24T13:35:28.286Z,6.90
2023-03-24T13:38:05.508Z,5.40
2023-03-24T13:40:39.849Z,4.80
2023-03-24T13:43:13.405Z,3.00
2023-03-24T13:45:47.214Z,5.20
2023-03-24T13:48:27.195Z,4.30
2023-03-24T13:51:00.296Z,4.60
2023-03-24T13:53:36.112Z,4.50
2023-03-24T13:56:08.865Z,3.80
2023-03-24T13:59:08.372Z,4.70
2023-03-24T14:01:39.403Z,4.60
2023-03-24T14:04:28.121Z,3.40
2023-03-24T14:06:58.884Z,5.10
2023-03-24T14:09:30.585Z,3.90
2023-03-24T14:12:26.495Z,3.00
2023-03-24T14:15:17.952Z,4.60
2023-03-24T14:17:50.095Z,4.30
2023-03-24T14:20:34.651Z,4.60
2023-03-24T14:23:04.952Z,4.80
2023-03-24T14:25:36.256Z,4.20
2023-03-24T14:28:28.459Z,4.90
2023-03-24T14:31:03.031Z,4.30
2023-03-24T14:33:32.084Z,4.20
2023-03-24T14:36:11.405Z,5.50
2023-03-24T14:38:44.556Z,6.60
2023-03-24T14:41:16.688Z,4.60
2023-03-24T14:43:57.774Z,2.90
2023-03-24T14:46:41.350Z,5.90
2023-03-24T14:49:23.600Z,4.10
2023-03-24T14:51:58.343Z,3.90
2023-03-24T14:54:34.815Z,4.20
2023-03-24T14:57:05.794Z,4.10
2023-03-24T14:59:46.746Z,4.50
2023-03-24T15:02:27.811Z,3.70
2023-03-24T15:05:21.900Z,3.50
2023-03-24T15:08:11.279Z,3.70
2023-03-24T15:10:44.769Z,3.80
2023-03-24T15:13:31.853Z,3.50
2023-03-24T15:16:03.139Z,3.10
2023-03-24T15:18:32.350Z,4.60
2023-03-24T15:21:01.340Z,3.90
2023-03-24T15:23:30.794Z,4.60
2023-03-24T15:26:00.297Z,3.30
2023-03-24T15:28:30.513Z,3.20
2023-03-24T15:31:00.740Z,4.40
2023-03-24T15:33:30.526Z,4.10
2023-03-24T15:36:01.648Z,3.80
2023-03-24T15:38:32.945Z,4.00
2023-03-24T15:41:05.851Z,5.40
2023-03-24T15:43:41.585Z,4.00
2023-03-24T15:48:49.711Z,4.10
2023-03-24T15:51:18.749Z,6.00
2023-03-24T15:53:55.680Z,3.60
2023-03-24T15:56:28.493Z,5.40
2023-03-24T15:59:08.616Z,4.00
2023-03-24T16:01:38.040Z,3.70
2023-03-24T16:04:12.951Z,4.30
2023-03-24T16:06:47.966Z,4.90
2023-03-24T16:09:21.137Z,3.80
2023-03-24T16:11:50.402Z,4.80
2023-03-24T16:14:23.822Z,5.80
2023-03-24T16:16:55.571Z,5.50
2023-03-24T16:19:25.375Z,4.60
2023-03-24T16:21:54.907Z,5.00
2023-03-24T16:24:24.203Z,5.60
2023-03-24T16:26:53.177Z,6.30
2023-03-24T16:29:23.685Z,5.30
2023-03-24T16:31:55.699Z,3.80
2023-03-24T16:34:25.324Z,4.50
2023-03-24T16:36:55.550Z,6.10
2023-03-24T16:39:26.201Z,4.30
2023-03-24T16:41:55.848Z,5.30
2023-03-24T16:44:25.333Z,4.90
2023-03-24T16:46:55.412Z,5.50
2023-03-24T16:49:25.622Z,4.40
2023-03-24T16:51:55.651Z,4.60
2023-03-24T16:54:24.837Z,5.40
2023-03-24T16:56:53.869Z,5.60
2023-03-24T16:59:22.938Z,5.00
2023-03-24T17:01:55.687Z,4.90
2023-03-24T17:04:26.858Z,3.90
2023-03-24T17:06:55.842Z,4.50
2023-03-24T17:09:25.270Z,5.20
2023-03-24T17:11:56.881Z,3.20
2023-03-24T17:14:25.845Z,4.70
2023-03-24T17:16:54.838Z,4.80
2023-03-24T17:19:25.046Z,6.50
2023-03-24T17:21:59.517Z,5.40
2023-03-24T17:24:29.460Z,5.40
2023-03-24T17:26:58.474Z,6.30
2023-03-24T17:29:27.436Z,5.50
2023-03-24T17:31:56.407Z,5.30
2023-03-24T17:34:25.444Z,5.90
2023-03-24T17:36:54.936Z,6.10
2023-03-24T17:39:23.930Z,5.20
2023-03-24T17:41:57.010Z,6.00
2023-03-24T17:44:26.021Z,6.30
2023-03-24T17:46:55.135Z,7.90
2023-03-24T17:49:24.147Z,6.90
2023-03-24T17:51:53.128Z,7.40
2023-03-24T17:54:22.032Z,6.30
2023-03-24T17:56:51.357Z,8.00
2023-03-24T17:59:21.521Z,7.10
2023-03-24T18:01:50.514Z,9.10
2023-03-24T18:04:20.047Z,9.00
2023-03-24T18:06:49.050Z,9.00
2023-03-24T18:09:18.308Z,7.40
2023-03-24T18:11:47.928Z,7.90
2023-03-24T18:14:16.951Z,8.50
2023-03-24T18:16:45.897Z,8.10
2023-03-24T18:19:15.647Z,10.10
2023-03-24T18:21:44.721Z,9.60
2023-03-24T18:24:13.795Z,7.90
2023-03-24T18:26:42.895Z,8.30
2023-03-24T18:29:12.513Z,9.00
2023-03-24T18:31:41.677Z,8.20
2023-03-24T18:34:10.684Z,9.60
2023-03-24T18:36:39.735Z,11.40
2023-03-24T18:39:10.194Z,9.00
2023-03-24T18:41:40.060Z,9.10
2023-03-24T18:44:13.100Z,9.70
2023-03-24T18:46:42.149Z,12.10
2023-03-24T18:49:13.601Z,9.30
2023-03-24T18:51:44.687Z,9.50
2023-03-24T18:54:13.756Z,10.80
2023-03-24T18:56:42.664Z,12.90
2023-03-24T18:59:12.098Z,11.70
2023-03-24T19:01:41.177Z,7.50
2023-03-24T19:04:10.588Z,9.40
2023-03-24T19:06:41.741Z,9.60
2023-03-24T19:09:12.868Z,10.00
2023-03-24T19:11:43.434Z,12.70
2023-03-24T19:14:12.638Z,12.00
2023-03-24T19:16:41.748Z,8.00
2023-03-24T19:19:10.799Z,9.20
2023-03-24T19:21:40.068Z,9.70
2023-03-24T19:24:09.594Z,7.80
2023-03-24T19:26:39.810Z,10.80
2023-03-24T19:29:08.939Z,12.70
2023-03-24T19:31:38.041Z,9.00
2023-03-24T19:34:07.038Z,8.60
2023-03-24T19:36:36.425Z,10.60
2023-03-24T19:39:05.727Z,8.20
2023-03-24T19:41:34.735Z,8.40
2023-03-24T19:44:05.126Z,6.80
2023-03-24T19:46:34.274Z,9.40
2023-03-24T19:49:03.450Z,6.90
2023-03-24T19:51:32.373Z,11.80
2023-03-24T19:54:01.216Z,10.50
2023-03-24T19:56:30.472Z,8.50
2023-03-24T19:58:59.413Z,8.90
2023-03-24T20:01:34.292Z,13.60
2023-03-24T20:04:03.381Z,36.30
2023-03-24T20:06:32.414Z,14.00
2023-03-24T20:09:01.365Z,11.40
2023-03-24T20:11:30.723Z,12.40
2023-03-24T20:13:59.719Z,11.50
2023-03-24T20:16:28.680Z,15.10
2023-03-24T20:18:58.206Z,10.90
2023-03-24T20:21:28.224Z,11.40
2023-03-24T20:23:57.597Z,10.70
2023-03-24T20:26:28.886Z,10.40
2023-03-24T20:28:58.427Z,10.70
2023-03-24T20:31:28.310Z,10.50
2023-03-24T20:33:57.441Z,9.40
2023-03-24T20:36:26.290Z,10.80
2023-03-24T20:38:58.861Z,13.10
2023-03-24T20:41:27.764Z,14.90
2023-03-24T20:43:56.792Z,12.90
2023-03-24T20:46:25.830Z,12.90
2023-03-24T20:48:55.433Z,12.70
2023-03-24T20:51:24.420Z,13.00
2023-03-24T20:53:53.457Z,13.60
2023-03-24T20:56:22.417Z,22.10
2023-03-24T20:58:52.072Z,22.90
2023-03-24T21:01:22.436Z,31.40
2023-03-24T21:03:52.965Z,38.40
2023-03-24T21:06:22.072Z,43.80
2023-03-24T21:08:52.388Z,48.90
2023-03-24T21:11:21.646Z,47.30
2023-03-24T21:13:50.687Z,53.70
2023-03-24T21:16:20.042Z,53.90
2023-03-24T21:18:49.479Z,52.90
2023-03-24T21:21:18.438Z,53.50
2023-03-24T21:23:47.988Z,52.00
2023-03-24T21:26:17.608Z,49.20
2023-03-24T21:28:46.670Z,52.60
2023-03-24T21:31:18.895Z,59.30
2023-03-24T21:33:48.100Z,52.30
2023-03-24T21:36:17.852Z,45.20
2023-03-24T21:38:49.092Z,47.40
2023-03-24T21:41:19.236Z,42.10
2023-03-24T21:43:50.500Z,44.70
2023-03-24T21:46:20.759Z,42.80
2023-03-24T21:48:51.310Z,40.00
2023-03-24T21:51:23.561Z,39.40
2023-03-24T21:53:54.876Z,47.50
2023-03-24T21:56:24.068Z,37.60
2023-03-24T21:58:54.468Z,31.30
2023-03-24T22:01:23.814Z,27.00
2023-03-24T22:03:54.255Z,28.60
2023-03-24T22:06:23.778Z,27.70
2023-03-24T22:08:57.606Z,25.10
2023-03-24T22:11:26.683Z,26.60
2023-03-24T22:13:55.660Z,23.00
2023-03-24T22:16:24.729Z,21.90
2023-03-24T22:18:53.756Z,20.50
2023-03-24T22:21:22.595Z,21.50
2023-03-24T22:23:51.807Z,20.10
2023-03-24T22:26:21.184Z,22.40
2023-03-24T22:28:50.539Z,19.30
2023-03-24T22:31:22.451Z,21.00
2023-03-24T22:33:51.605Z,25.40
2023-03-24T22:36:20.965Z,22.50
2023-03-24T22:38:50.037Z,22.10
2023-03-24T22:41:18.987Z,18.90
2023-03-24T22:43:48.637Z,23.20
2023-03-24T22:46:17.766Z,25.50
2023-03-24T22:48:46.670Z,20.10
2023-03-24T22:51:18.598Z,21.20
2023-03-24T22:53:48.307Z,19.00
2023-03-24T22:56:17.197Z,19.20
2023-03-24T22:58:46.085Z,22.00
2023-03-24T23:01:15.408Z,17.60
2023-03-24T23:03:44.400Z,19.60
2023-03-24T23:06:15.332Z,18.90
2023-03-24T23:08:44.399Z,22.70
2023-03-24T23:11:13.356Z,26.00
2023-03-24T23:13:42.260Z,23.60
2023-03-24T23:16:11.927Z,22.00
2023-03-24T23:18:41.098Z,24.90
2023-03-24T23:21:12.876Z,25.60
2023-03-24T23:23:43.086Z,25.10
2023-03-24T23:26:13.818Z,24.70
2023-03-24T23:28:56.127Z,29.50
2023-03-24T23:31:27.673Z,29.00
2023-03-24T23:33:57.940Z,31.30
2023-03-24T23:36:27.700Z,30.00
2023-03-24T23:38:56.883Z,29.00
2023-03-24T23:41:25.858Z,29.30
2023-03-24T23:43:55.338Z,33.70
2023-03-24T23:46:25.181Z,32.10
2023-03-24T23:48:54.257Z,33.40
2023-03-24T23:51:23.134Z,32.00
2023-03-24T23:53:52.093Z,32.20
2023-03-24T23:56:22.159Z,30.50
2023-03-24T23:58:51.729Z,29.40
